sensor_id;sensor_type;location;lat;lon;timestamp;P1;durP1;ratioP1;P2;durP2;ratioP2
12248;SDS011;6187;50.778;6.142;2023-07-16T00:02:07;1.73;;;1.20;;
12248;SDS011;6187;50.778;6.142;2023-07-16T00:04:39;1.77;;;1.30;;
12248;SDS011;6187;50.778;6.142;2023-07-16T00:07:08;1.50;;;1.30;;
12248;SDS011;6187;50.778;6.142;2023-07-16T00:09:40;1.87;;;1.60;;
12248;SDS011;6187;50.778;6.142;2023-07-16T00:12:09;2.63;;;1.30;;
12248;SDS011;6187;50.778;6.142;2023-07-16T00:14:39;1.53;;;1.20;;
12248;SDS011;6187;50.778;6.142;2023-07-16T00:17:08;1.80;;;1.20;;
12248;SDS011;6187;50.778;6.142;2023-07-16T00:19:37;1.87;;;1.30;;
12248;SDS011;6187;50.778;6.142;2023-07-16T00:22:06;1.83;;;1.27;;
12248;SDS011;6187;50.778;6.142;2023-07-16T00:24:35;1.73;;;1.20;;
12248;SDS011;6187;50.778;6.142;2023-07-16T00:27:05;1.20;;;1.00;;
12248;SDS011;6187;50.778;6.142;2023-07-16T00:29:34;1.50;;;1.20;;
12248;SDS011;6187;50.778;6.142;2023-07-16T00:32:04;1.60;;;1.10;;
12248;SDS011;6187;50.778;6.142;2023-07-16T00:34:33;1.63;;;1.20;;
12248;SDS011;6187;50.778;6.142;2023-07-16T00:37:02;3.67;;;1.30;;
12248;SDS011;6187;50.778;6.142;2023-07-16T00:39:31;1.40;;;1.20;;
12248;SDS011;6187;50.778;6.142;2023-07-16T00:42:00;1.50;;;1.40;;
12248;SDS011;6187;50.778;6.142;2023-07-16T00:44:30;1.40;;;1.13;;
12248;SDS011;6187;50.778;6.142;2023-07-16T00:46:59;3.13;;;1.37;;
12248;SDS011;6187;50.778;6.142;2023-07-16T00:49:28;2.90;;;1.40;;
12248;SDS011;6187;50.778;6.142;2023-07-16T00:51:58;2.20;;;1.20;;
12248;SDS011;6187;50.778;6.142;2023-07-16T00:54:28;1.90;;;1.17;;
12248;SDS011;6187;50.778;6.142;2023-07-16T00:56:58;1.93;;;1.00;;
12248;SDS011;6187;50.778;6.142;2023-07-16T00:59:27;2.40;;;1.27;;
12248;SDS011;6187;50.778;6.142;2023-07-16T01:01:57;1.80;;;1.20;;
12248;SDS011;6187;50.778;6.142;2023-07-16T01:04:26;2.33;;;1.10;;
12248;SDS011;6187;50.778;6.142;2023-07-16T01:06:55;1.47;;;1.00;;
12248;SDS011;6187;50.778;6.142;2023-07-16T01:09:26;1.83;;;1.13;;
12248;SDS011;6187;50.778;6.142;2023-07-16T01:11:55;2.93;;;1.20;;
12248;SDS011;6187;50.778;6.142;2023-07-16T01:14:26;1.20;;;1.10;;
12248;SDS011;6187;50.778;6.142;2023-07-16T01:16:55;2.10;;;1.30;;
12248;SDS011;6187;50.778;6.142;2023-07-16T01:19:27;1.20;;;1.10;;
12248;SDS011;6187;50.778;6.142;2023-07-16T01:21:58;2.60;;;1.10;;
12248;SDS011;6187;50.778;6.142;2023-07-16T01:24:48;1.93;;;1.40;;
12248;SDS011;6187;50.778;6.142;2023-07-16T01:27:23;1.20;;;1.00;;
12248;SDS011;6187;50.778;6.142;2023-07-16T01:29:55;2.37;;;1.40;;
12248;SDS011;6187;50.778;6.142;2023-07-16T01:32:27;1.27;;;1.03;;
12248;SDS011;6187;50.778;6.142;2023-07-16T01:34:56;1.93;;;1.20;;
12248;SDS011;6187;50.778;6.142;2023-07-16T01:37:26;1.73;;;1.27;;
12248;SDS011;6187;50.778;6.142;2023-07-16T01:39:55;2.63;;;1.53;;
12248;SDS011;6187;50.778;6.142;2023-07-16T01:42:24;2.00;;;1.53;;
12248;SDS011;6187;50.778;6.142;2023-07-16T01:44:52;1.53;;;1.10;;
12248;SDS011;6187;50.778;6.142;2023-07-16T01:47:23;1.17;;;1.07;;
12248;SDS011;6187;50.778;6.142;2023-07-16T01:49:53;1.57;;;1.13;;
12248;SDS011;6187;50.778;6.142;2023-07-16T01:52:22;2.00;;;1.17;;
12248;SDS011;6187;50.778;6.142;2023-07-16T01:54:51;3.47;;;1.03;;
12248;SDS011;6187;50.778;6.142;2023-07-16T01:57:20;1.57;;;1.47;;
12248;SDS011;6187;50.778;6.142;2023-07-16T01:59:48;1.27;;;1.10;;
12248;SDS011;6187;50.778;6.142;2023-07-16T02:02:19;1.43;;;1.00;;
12248;SDS011;6187;50.778;6.142;2023-07-16T02:04:50;3.27;;;1.33;;
12248;SDS011;6187;50.778;6.142;2023-07-16T02:07:19;2.40;;;1.40;;
12248;SDS011;6187;50.778;6.142;2023-07-16T02:09:56;1.97;;;1.40;;
12248;SDS011;6187;50.778;6.142;2023-07-16T02:12:25;2.33;;;1.10;;
12248;SDS011;6187;50.778;6.142;2023-07-16T02:14:53;2.83;;;1.30;;
12248;SDS011;6187;50.778;6.142;2023-07-16T02:17:22;2.63;;;1.50;;
12248;SDS011;6187;50.778;6.142;2023-07-16T02:19:52;1.90;;;1.10;;
12248;SDS011;6187;50.778;6.142;2023-07-16T02:22:21;2.20;;;1.17;;
12248;SDS011;6187;50.778;6.142;2023-07-16T02:24:50;1.43;;;1.23;;
12248;SDS011;6187;50.778;6.142;2023-07-16T02:27:19;3.07;;;1.43;;
12248;SDS011;6187;50.778;6.142;2023-07-16T02:29:48;1.90;;;1.10;;
12248;SDS011;6187;50.778;6.142;2023-07-16T02:32:17;2.47;;;1.10;;
12248;SDS011;6187;50.778;6.142;2023-07-16T02:34:46;1.20;;;1.10;;
12248;SDS011;6187;50.778;6.142;2023-07-16T02:37:17;1.20;;;1.10;;
12248;SDS011;6187;50.778;6.142;2023-07-16T02:39:46;1.40;;;1.13;;
12248;SDS011;6187;50.778;6.142;2023-07-16T02:42:15;2.20;;;1.10;;
12248;SDS011;6187;50.778;6.142;2023-07-16T02:44:44;1.60;;;1.30;;
12248;SDS011;6187;50.778;6.142;2023-07-16T02:47:15;1.77;;;1.03;;
12248;SDS011;6187;50.778;6.142;2023-07-16T02:49:44;2.90;;;1.30;;
12248;SDS011;6187;50.778;6.142;2023-07-16T02:52:13;2.00;;;1.40;;
12248;SDS011;6187;50.778;6.142;2023-07-16T02:54:43;1.30;;;1.20;;
12248;SDS011;6187;50.778;6.142;2023-07-16T02:57:12;1.23;;;1.10;;
12248;SDS011;6187;50.778;6.142;2023-07-16T02:59:41;2.80;;;1.40;;
12248;SDS011;6187;50.778;6.142;2023-07-16T03:02:10;1.63;;;1.37;;
12248;SDS011;6187;50.778;6.142;2023-07-16T03:04:39;3.20;;;1.57;;
12248;SDS011;6187;50.778;6.142;2023-07-16T03:07:08;2.53;;;1.00;;
12248;SDS011;6187;50.778;6.142;2023-07-16T03:09:37;2.97;;;1.50;;
12248;SDS011;6187;50.778;6.142;2023-07-16T03:12:08;3.57;;;1.47;;
12248;SDS011;6187;50.778;6.142;2023-07-16T03:14:37;2.80;;;1.40;;
12248;SDS011;6187;50.778;6.142;2023-07-16T03:17:06;2.97;;;1.60;;
12248;SDS011;6187;50.778;6.142;2023-07-16T03:19:35;1.90;;;1.20;;
12248;SDS011;6187;50.778;6.142;2023-07-16T03:22:04;1.50;;;1.40;;
12248;SDS011;6187;50.778;6.142;2023-07-16T03:24:33;1.43;;;1.30;;
12248;SDS011;6187;50.778;6.142;2023-07-16T03:27:02;1.60;;;1.47;;
12248;SDS011;6187;50.778;6.142;2023-07-16T03:29:45;2.57;;;1.73;;
12248;SDS011;6187;50.778;6.142;2023-07-16T03:32:14;2.10;;;1.27;;
12248;SDS011;6187;50.778;6.142;2023-07-16T03:34:43;2.20;;;1.30;;
12248;SDS011;6187;50.778;6.142;2023-07-16T03:37:12;3.57;;;1.40;;
12248;SDS011;6187;50.778;6.142;2023-07-16T03:39:40;3.40;;;1.47;;
12248;SDS011;6187;50.778;6.142;2023-07-16T03:42:09;2.13;;;1.50;;
12248;SDS011;6187;50.778;6.142;2023-07-16T03:44:38;1.83;;;1.40;;
12248;SDS011;6187;50.778;6.142;2023-07-16T03:47:08;1.47;;;1.30;;
12248;SDS011;6187;50.778;6.142;2023-07-16T03:49:37;1.67;;;1.50;;
12248;SDS011;6187;50.778;6.142;2023-07-16T03:52:06;3.33;;;1.57;;
12248;SDS011;6187;50.778;6.142;2023-07-16T03:54:35;2.90;;;1.60;;
12248;SDS011;6187;50.778;6.142;2023-07-16T03:57:04;1.83;;;1.60;;
12248;SDS011;6187;50.778;6.142;2023-07-16T03:59:33;2.40;;;1.50;;
12248;SDS011;6187;50.778;6.142;2023-07-16T04:02:02;2.20;;;1.47;;
12248;SDS011;6187;50.778;6.142;2023-07-16T04:04:33;3.07;;;1.47;;
12248;SDS011;6187;50.778;6.142;2023-07-16T04:07:01;2.93;;;1.60;;
12248;SDS011;6187;50.778;6.142;2023-07-16T04:09:30;3.80;;;1.90;;
12248;SDS011;6187;50.778;6.142;2023-07-16T04:11:59;2.80;;;1.57;;
12248;SDS011;6187;50.778;6.142;2023-07-16T04:14:28;2.43;;;1.80;;
12248;SDS011;6187;50.778;6.142;2023-07-16T04:16:57;3.20;;;1.63;;
12248;SDS011;6187;50.778;6.142;2023-07-16T04:19:27;4.83;;;2.20;;
12248;SDS011;6187;50.778;6.142;2023-07-16T04:21:57;4.17;;;1.90;;
12248;SDS011;6187;50.778;6.142;2023-07-16T04:24:26;1.63;;;1.47;;
12248;SDS011;6187;50.778;6.142;2023-07-16T04:26:57;2.30;;;1.47;;
12248;SDS011;6187;50.778;6.142;2023-07-16T04:29:26;2.10;;;1.70;;
12248;SDS011;6187;50.778;6.142;2023-07-16T04:31:55;2.30;;;1.57;;
12248;SDS011;6187;50.778;6.142;2023-07-16T04:34:24;2.33;;;1.97;;
12248;SDS011;6187;50.778;6.142;2023-07-16T04:36:53;3.43;;;1.67;;
12248;SDS011;6187;50.778;6.142;2023-07-16T04:39:24;3.10;;;1.97;;
12248;SDS011;6187;50.778;6.142;2023-07-16T04:41:52;2.77;;;1.63;;
12248;SDS011;6187;50.778;6.142;2023-07-16T04:44:21;3.80;;;2.13;;
12248;SDS011;6187;50.778;6.142;2023-07-16T04:46:50;3.43;;;2.10;;
12248;SDS011;6187;50.778;6.142;2023-07-16T04:49:19;5.43;;;2.13;;
12248;SDS011;6187;50.778;6.142;2023-07-16T04:51:48;4.17;;;2.33;;
12248;SDS011;6187;50.778;6.142;2023-07-16T04:54:17;2.00;;;1.83;;
12248;SDS011;6187;50.778;6.142;2023-07-16T04:56:48;4.07;;;2.37;;
12248;SDS011;6187;50.778;6.142;2023-07-16T04:59:16;3.33;;;2.10;;
12248;SDS011;6187;50.778;6.142;2023-07-16T05:01:45;3.77;;;2.23;;
12248;SDS011;6187;50.778;6.142;2023-07-16T05:04:14;3.73;;;2.50;;
12248;SDS011;6187;50.778;6.142;2023-07-16T05:06:43;3.23;;;2.13;;
12248;SDS011;6187;50.778;6.142;2023-07-16T05:09:13;2.57;;;2.07;;
12248;SDS011;6187;50.778;6.142;2023-07-16T05:11:42;3.33;;;2.23;;
12248;SDS011;6187;50.778;6.142;2023-07-16T05:14:12;3.33;;;2.37;;
12248;SDS011;6187;50.778;6.142;2023-07-16T05:16:41;3.53;;;2.50;;
12248;SDS011;6187;50.778;6.142;2023-07-16T05:19:13;3.67;;;2.30;;
12248;SDS011;6187;50.778;6.142;2023-07-16T05:21:42;4.23;;;2.73;;
12248;SDS011;6187;50.778;6.142;2023-07-16T05:24:11;3.40;;;2.57;;
12248;SDS011;6187;50.778;6.142;2023-07-16T05:26:40;2.33;;;2.10;;
12248;SDS011;6187;50.778;6.142;2023-07-16T05:29:09;5.10;;;2.70;;
12248;SDS011;6187;50.778;6.142;2023-07-16T05:31:42;3.60;;;2.47;;
12248;SDS011;6187;50.778;6.142;2023-07-16T05:34:13;4.50;;;2.73;;
12248;SDS011;6187;50.778;6.142;2023-07-16T05:36:42;4.13;;;2.80;;
12248;SDS011;6187;50.778;6.142;2023-07-16T05:39:12;3.13;;;2.30;;
12248;SDS011;6187;50.778;6.142;2023-07-16T05:41:41;3.60;;;2.50;;
12248;SDS011;6187;50.778;6.142;2023-07-16T05:44:13;3.67;;;2.47;;
12248;SDS011;6187;50.778;6.142;2023-07-16T05:46:43;4.77;;;3.00;;
12248;SDS011;6187;50.778;6.142;2023-07-16T05:49:13;2.80;;;2.50;;
12248;SDS011;6187;50.778;6.142;2023-07-16T05:51:42;6.50;;;3.30;;
12248;SDS011;6187;50.778;6.142;2023-07-16T05:54:19;3.77;;;2.60;;
12248;SDS011;6187;50.778;6.142;2023-07-16T05:56:48;5.07;;;2.90;;
12248;SDS011;6187;50.778;6.142;2023-07-16T05:59:17;4.30;;;3.30;;
12248;SDS011;6187;50.778;6.142;2023-07-16T06:01:47;5.20;;;2.80;;
12248;SDS011;6187;50.778;6.142;2023-07-16T06:04:17;3.97;;;3.17;;
12248;SDS011;6187;50.778;6.142;2023-07-16T06:06:46;4.17;;;2.90;;
12248;SDS011;6187;50.778;6.142;2023-07-16T06:09:18;3.73;;;3.10;;
12248;SDS011;6187;50.778;6.142;2023-07-16T06:11:47;4.13;;;3.00;;
12248;SDS011;6187;50.778;6.142;2023-07-16T06:14:16;5.03;;;3.33;;
12248;SDS011;6187;50.778;6.142;2023-07-16T06:16:45;3.90;;;2.77;;
12248;SDS011;6187;50.778;6.142;2023-07-16T06:19:16;4.57;;;2.97;;
12248;SDS011;6187;50.778;6.142;2023-07-16T06:21:44;5.17;;;3.27;;
12248;SDS011;6187;50.778;6.142;2023-07-16T06:24:14;3.63;;;2.93;;
12248;SDS011;6187;50.778;6.142;2023-07-16T06:26:43;7.00;;;3.50;;
12248;SDS011;6187;50.778;6.142;2023-07-16T06:29:14;6.90;;;3.53;;
12248;SDS011;6187;50.778;6.142;2023-07-16T06:31:53;3.87;;;3.00;;
12248;SDS011;6187;50.778;6.142;2023-07-16T06:34:24;3.97;;;3.20;;
12248;SDS011;6187;50.778;6.142;2023-07-16T06:36:53;7.00;;;3.20;;
12248;SDS011;6187;50.778;6.142;2023-07-16T06:39:22;4.97;;;2.50;;
12248;SDS011;6187;50.778;6.142;2023-07-16T06:41:51;4.87;;;3.33;;
12248;SDS011;6187;50.778;6.142;2023-07-16T06:44:20;3.93;;;3.30;;
12248;SDS011;6187;50.778;6.142;2023-07-16T06:46:50;3.57;;;3.03;;
12248;SDS011;6187;50.778;6.142;2023-07-16T06:49:19;4.23;;;2.97;;
12248;SDS011;6187;50.778;6.142;2023-07-16T06:51:50;3.90;;;3.00;;
12248;SDS011;6187;50.778;6.142;2023-07-16T06:54:18;3.40;;;3.10;;
12248;SDS011;6187;50.778;6.142;2023-07-16T06:56:47;2.97;;;2.67;;
12248;SDS011;6187;50.778;6.142;2023-07-16T06:59:17;4.20;;;2.97;;
12248;SDS011;6187;50.778;6.142;2023-07-16T07:01:46;4.80;;;3.17;;
12248;SDS011;6187;50.778;6.142;2023-07-16T07:04:15;3.40;;;3.07;;
12248;SDS011;6187;50.778;6.142;2023-07-16T07:06:54;3.53;;;2.73;;
12248;SDS011;6187;50.778;6.142;2023-07-16T07:09:24;3.93;;;2.90;;
12248;SDS011;6187;50.778;6.142;2023-07-16T07:11:55;3.17;;;2.70;;
12248;SDS011;6187;50.778;6.142;2023-07-16T07:14:25;5.60;;;3.30;;
12248;SDS011;6187;50.778;6.142;2023-07-16T07:16:54;4.23;;;2.90;;
12248;SDS011;6187;50.778;6.142;2023-07-16T07:19:26;3.30;;;2.57;;
12248;SDS011;6187;50.778;6.142;2023-07-16T07:21:57;4.90;;;3.40;;
12248;SDS011;6187;50.778;6.142;2023-07-16T07:24:26;3.73;;;3.33;;
12248;SDS011;6187;50.778;6.142;2023-07-16T07:26:55;4.57;;;3.17;;
12248;SDS011;6187;50.778;6.142;2023-07-16T07:29:24;3.77;;;3.00;;
12248;SDS011;6187;50.778;6.142;2023-07-16T07:31:53;3.53;;;2.83;;
12248;SDS011;6187;50.778;6.142;2023-07-16T07:34:22;3.40;;;2.53;;
12248;SDS011;6187;50.778;6.142;2023-07-16T07:36:50;4.50;;;2.50;;
12248;SDS011;6187;50.778;6.142;2023-07-16T07:39:21;3.20;;;2.80;;
12248;SDS011;6187;50.778;6.142;2023-07-16T07:41:55;3.57;;;2.77;;
12248;SDS011;6187;50.778;6.142;2023-07-16T07:44:27;4.90;;;3.17;;
12248;SDS011;6187;50.778;6.142;2023-07-16T07:46:57;3.67;;;2.80;;
12248;SDS011;6187;50.778;6.142;2023-07-16T07:49:26;2.93;;;2.60;;
12248;SDS011;6187;50.778;6.142;2023-07-16T07:51:55;3.93;;;2.77;;
12248;SDS011;6187;50.778;6.142;2023-07-16T07:54:25;2.90;;;2.57;;
12248;SDS011;6187;50.778;6.142;2023-07-16T07:56:54;4.97;;;3.00;;
12248;SDS011;6187;50.778;6.142;2023-07-16T07:59:23;4.07;;;2.97;;
12248;SDS011;6187;50.778;6.142;2023-07-16T08:01:52;4.00;;;2.70;;
12248;SDS011;6187;50.778;6.142;2023-07-16T08:04:21;5.03;;;2.97;;
12248;SDS011;6187;50.778;6.142;2023-07-16T08:06:50;4.60;;;2.87;;
12248;SDS011;6187;50.778;6.142;2023-07-16T08:09:19;4.53;;;3.23;;
12248;SDS011;6187;50.778;6.142;2023-07-16T08:11:49;3.60;;;2.80;;
12248;SDS011;6187;50.778;6.142;2023-07-16T08:14:18;3.97;;;2.67;;
12248;SDS011;6187;50.778;6.142;2023-07-16T08:16:47;4.30;;;2.70;;
12248;SDS011;6187;50.778;6.142;2023-07-16T08:19:16;3.43;;;2.80;;
12248;SDS011;6187;50.778;6.142;2023-07-16T08:21:45;4.30;;;2.40;;
12248;SDS011;6187;50.778;6.142;2023-07-16T08:24:16;3.07;;;2.67;;
12248;SDS011;6187;50.778;6.142;2023-07-16T08:26:47;3.43;;;3.00;;
12248;SDS011;6187;50.778;6.142;2023-07-16T08:29:17;4.10;;;2.60;;
12248;SDS011;6187;50.778;6.142;2023-07-16T08:31:46;2.43;;;2.23;;
12248;SDS011;6187;50.778;6.142;2023-07-16T08:34:15;3.80;;;2.47;;
12248;SDS011;6187;50.778;6.142;2023-07-16T08:36:44;2.60;;;2.40;;
12248;SDS011;6187;50.778;6.142;2023-07-16T08:39:14;2.73;;;2.53;;
12248;SDS011;6187;50.778;6.142;2023-07-16T08:41:47;3.37;;;2.40;;
12248;SDS011;6187;50.778;6.142;2023-07-16T08:44:18;3.37;;;2.50;;
12248;SDS011;6187;50.778;6.142;2023-07-16T08:46:48;2.90;;;2.20;;
12248;SDS011;6187;50.778;6.142;2023-07-16T08:49:17;3.30;;;2.60;;
12248;SDS011;6187;50.778;6.142;2023-07-16T08:51:52;2.60;;;2.13;;
12248;SDS011;6187;50.778;6.142;2023-07-16T08:54:23;2.50;;;2.23;;
12248;SDS011;6187;50.778;6.142;2023-07-16T08:56:52;3.60;;;2.30;;
12248;SDS011;6187;50.778;6.142;2023-07-16T08:59:23;3.00;;;2.40;;
12248;SDS011;6187;50.778;6.142;2023-07-16T09:01:52;3.03;;;2.30;;
12248;SDS011;6187;50.778;6.142;2023-07-16T09:04:21;3.67;;;2.37;;
12248;SDS011;6187;50.778;6.142;2023-07-16T09:06:50;3.00;;;2.30;;
12248;SDS011;6187;50.778;6.142;2023-07-16T09:09:19;3.80;;;2.60;;
12248;SDS011;6187;50.778;6.142;2023-07-16T09:11:49;2.73;;;2.13;;
12248;SDS011;6187;50.778;6.142;2023-07-16T09:14:18;3.17;;;2.30;;
12248;SDS011;6187;50.778;6.142;2023-07-16T09:16:49;2.97;;;2.20;;
12248;SDS011;6187;50.778;6.142;2023-07-16T09:19:22;2.53;;;2.30;;
12248;SDS011;6187;50.778;6.142;2023-07-16T09:21:51;2.42;;;2.15;;
12248;SDS011;6187;50.778;6.142;2023-07-16T09:24:20;3.85;;;2.60;;
12248;SDS011;6187;50.778;6.142;2023-07-16T09:26:49;2.35;;;2.05;;
12248;SDS011;6187;50.778;6.142;2023-07-16T09:29:19;2.38;;;2.13;;
12248;SDS011;6187;50.778;6.142;2023-07-16T09:32:00;3.28;;;2.05;;
12248;SDS011;6187;50.778;6.142;2023-07-16T09:34:30;3.10;;;2.22;;
12248;SDS011;6187;50.778;6.142;2023-07-16T09:36:59;3.78;;;2.28;;
12248;SDS011;6187;50.778;6.142;2023-07-16T09:39:28;3.47;;;2.40;;
12248;SDS011;6187;50.778;6.142;2023-07-16T09:41:57;3.05;;;2.30;;
12248;SDS011;6187;50.778;6.142;2023-07-16T09:44:26;2.13;;;1.92;;
12248;SDS011;6187;50.778;6.142;2023-07-16T09:47:00;3.00;;;2.15;;
12248;SDS011;6187;50.778;6.142;2023-07-16T09:49:29;3.17;;;2.20;;
12248;SDS011;6187;50.778;6.142;2023-07-16T09:51:58;4.13;;;2.50;;
12248;SDS011;6187;50.778;6.142;2023-07-16T09:54:29;2.00;;;1.80;;
12248;SDS011;6187;50.778;6.142;2023-07-16T09:56:59;3.45;;;2.30;;
12248;SDS011;6187;50.778;6.142;2023-07-16T09:59:30;2.85;;;2.30;;
12248;SDS011;6187;50.778;6.142;2023-07-16T10:02:04;3.17;;;2.30;;
12248;SDS011;6187;50.778;6.142;2023-07-16T10:04:38;3.05;;;2.30;;
12248;SDS011;6187;50.778;6.142;2023-07-16T10:07:17;2.25;;;1.63;;
12248;SDS011;6187;50.778;6.142;2023-07-16T10:09:50;3.28;;;2.40;;
12248;SDS011;6187;50.778;6.142;2023-07-16T10:12:23;2.13;;;1.90;;
12248;SDS011;6187;50.778;6.142;2023-07-16T10:14:53;3.40;;;2.37;;
12248;SDS011;6187;50.778;6.142;2023-07-16T10:17:26;2.35;;;2.10;;
12248;SDS011;6187;50.778;6.142;2023-07-16T10:19:55;2.63;;;1.92;;
12248;SDS011;6187;50.778;6.142;2023-07-16T10:22:34;2.50;;;1.75;;
12248;SDS011;6187;50.778;6.142;2023-07-16T10:25:08;2.83;;;1.80;;
12248;SDS011;6187;50.778;6.142;2023-07-16T10:27:37;3.13;;;1.92;;
12248;SDS011;6187;50.778;6.142;2023-07-16T10:30:07;2.13;;;1.73;;
12248;SDS011;6187;50.778;6.142;2023-07-16T10:32:38;2.08;;;1.77;;
12248;SDS011;6187;50.778;6.142;2023-07-16T10:35:07;2.72;;;2.00;;
12248;SDS011;6187;50.778;6.142;2023-07-16T10:37:37;2.47;;;1.70;;
12248;SDS011;6187;50.778;6.142;2023-07-16T10:40:09;2.85;;;2.13;;
12248;SDS011;6187;50.778;6.142;2023-07-16T10:42:40;1.95;;;1.70;;
12248;SDS011;6187;50.778;6.142;2023-07-16T10:45:09;2.35;;;1.83;;
12248;SDS011;6187;50.778;6.142;2023-07-16T10:47:53;2.40;;;1.83;;
12248;SDS011;6187;50.778;6.142;2023-07-16T10:50:26;2.53;;;2.15;;
12248;SDS011;6187;50.778;6.142;2023-07-16T10:52:55;4.82;;;2.08;;
12248;SDS011;6187;50.778;6.142;2023-07-16T10:55:26;2.40;;;2.03;;
12248;SDS011;6187;50.778;6.142;2023-07-16T10:58:03;3.72;;;2.50;;
12248;SDS011;6187;50.778;6.142;2023-07-16T11:00:36;1.98;;;1.70;;
12248;SDS011;6187;50.778;6.142;2023-07-16T11:03:07;2.33;;;2.13;;
12248;SDS011;6187;50.778;6.142;2023-07-16T11:05:36;3.10;;;2.00;;
12248;SDS011;6187;50.778;6.142;2023-07-16T11:08:05;2.45;;;1.75;;
12248;SDS011;6187;50.778;6.142;2023-07-16T11:10:34;3.60;;;2.25;;
12248;SDS011;6187;50.778;6.142;2023-07-16T11:13:03;3.22;;;2.38;;
12248;SDS011;6187;50.778;6.142;2023-07-16T11:15:35;2.22;;;1.90;;
12248;SDS011;6187;50.778;6.142;2023-07-16T11:18:09;3.00;;;2.08;;
12248;SDS011;6187;50.778;6.142;2023-07-16T11:20:38;3.13;;;2.20;;
12248;SDS011;6187;50.778;6.142;2023-07-16T11:23:13;2.28;;;2.08;;
12248;SDS011;6187;50.778;6.142;2023-07-16T11:25:45;2.30;;;2.10;;
12248;SDS011;6187;50.778;6.142;2023-07-16T11:28:14;2.88;;;2.10;;
12248;SDS011;6187;50.778;6.142;2023-07-16T11:30:45;2.30;;;1.95;;
12248;SDS011;6187;50.778;6.142;2023-07-16T11:33:16;4.45;;;2.05;;
12248;SDS011;6187;50.778;6.142;2023-07-16T11:35:45;2.88;;;2.10;;
12248;SDS011;6187;50.778;6.142;2023-07-16T11:38:17;2.55;;;2.22;;
12248;SDS011;6187;50.778;6.142;2023-07-16T11:40:48;2.83;;;2.00;;
12248;SDS011;6187;50.778;6.142;2023-07-16T11:43:21;4.18;;;2.30;;
12248;SDS011;6187;50.778;6.142;2023-07-16T11:45:50;2.55;;;1.98;;
12248;SDS011;6187;50.778;6.142;2023-07-16T11:48:21;3.45;;;2.45;;
12248;SDS011;6187;50.778;6.142;2023-07-16T11:50:50;2.70;;;2.30;;
12248;SDS011;6187;50.778;6.142;2023-07-16T11:53:22;2.75;;;2.05;;
12248;SDS011;6187;50.778;6.142;2023-07-16T11:55:51;2.67;;;2.28;;
12248;SDS011;6187;50.778;6.142;2023-07-16T11:58:20;1.92;;;1.70;;
12248;SDS011;6187;50.778;6.142;2023-07-16T12:00:49;3.45;;;2.10;;
12248;SDS011;6187;50.778;6.142;2023-07-16T12:03:18;2.05;;;1.80;;
12248;SDS011;6187;50.778;6.142;2023-07-16T12:05:49;3.05;;;1.70;;
12248;SDS011;6187;50.778;6.142;2023-07-16T12:08:20;3.25;;;1.95;;
12248;SDS011;6187;50.778;6.142;2023-07-16T12:10:55;2.70;;;1.98;;
12248;SDS011;6187;50.778;6.142;2023-07-16T12:13:35;2.30;;;1.70;;
12248;SDS011;6187;50.778;6.142;2023-07-16T12:16:07;2.90;;;2.28;;
12248;SDS011;6187;50.778;6.142;2023-07-16T12:18:43;3.53;;;1.77;;
12248;SDS011;6187;50.778;6.142;2023-07-16T12:21:21;2.08;;;1.77;;
12248;SDS011;6187;50.778;6.142;2023-07-16T12:23:52;1.90;;;1.67;;
12248;SDS011;6187;50.778;6.142;2023-07-16T12:26:24;2.30;;;1.88;;
12248;SDS011;6187;50.778;6.142;2023-07-16T12:28:57;2.15;;;1.55;;
12248;SDS011;6187;50.778;6.142;2023-07-16T12:31:33;1.90;;;1.50;;
12248;SDS011;6187;50.778;6.142;2023-07-16T12:34:02;2.15;;;1.70;;
12248;SDS011;6187;50.778;6.142;2023-07-16T12:36:33;2.40;;;1.90;;
12248;SDS011;6187;50.778;6.142;2023-07-16T12:39:02;2.38;;;1.42;;
12248;SDS011;6187;50.778;6.142;2023-07-16T12:41:31;2.65;;;1.67;;
12248;SDS011;6187;50.778;6.142;2023-07-16T12:44:00;2.33;;;1.67;;
12248;SDS011;6187;50.778;6.142;2023-07-16T12:46:30;2.53;;;1.90;;
12248;SDS011;6187;50.778;6.142;2023-07-16T12:48:59;2.28;;;1.70;;
12248;SDS011;6187;50.778;6.142;2023-07-16T12:51:31;2.25;;;1.80;;
12248;SDS011;6187;50.778;6.142;2023-07-16T12:54:01;1.67;;;1.45;;
12248;SDS011;6187;50.778;6.142;2023-07-16T12:56:31;2.22;;;1.73;;
12248;SDS011;6187;50.778;6.142;2023-07-16T12:59:00;2.38;;;1.55;;
12248;SDS011;6187;50.778;6.142;2023-07-16T13:01:30;1.58;;;1.35;;
12248;SDS011;6187;50.778;6.142;2023-07-16T13:04:02;2.60;;;1.73;;
12248;SDS011;6187;50.778;6.142;2023-07-16T13:06:33;2.13;;;1.40;;
12248;SDS011;6187;50.778;6.142;2023-07-16T13:09:04;2.05;;;1.77;;
12248;SDS011;6187;50.778;6.142;2023-07-16T13:11:37;2.35;;;1.83;;
12248;SDS011;6187;50.778;6.142;2023-07-16T13:14:10;2.22;;;1.75;;
12248;SDS011;6187;50.778;6.142;2023-07-16T13:16:40;1.70;;;1.60;;
12248;SDS011;6187;50.778;6.142;2023-07-16T13:19:12;4.38;;;1.70;;
12248;SDS011;6187;50.778;6.142;2023-07-16T13:21:42;2.47;;;1.73;;
12248;SDS011;6187;50.778;6.142;2023-07-16T13:24:13;1.90;;;1.65;;
12248;SDS011;6187;50.778;6.142;2023-07-16T13:26:42;3.67;;;1.77;;
12248;SDS011;6187;50.778;6.142;2023-07-16T13:29:16;2.58;;;1.58;;
12248;SDS011;6187;50.778;6.142;2023-07-16T13:31:47;2.55;;;1.67;;
12248;SDS011;6187;50.778;6.142;2023-07-16T13:34:16;2.42;;;1.45;;
12248;SDS011;6187;50.778;6.142;2023-07-16T13:36:50;2.13;;;1.65;;
12248;SDS011;6187;50.778;6.142;2023-07-16T13:39:24;2.38;;;1.92;;
12248;SDS011;6187;50.778;6.142;2023-07-16T13:41:54;2.65;;;1.67;;
12248;SDS011;6187;50.778;6.142;2023-07-16T13:44:45;1.73;;;1.50;;
12248;SDS011;6187;50.778;6.142;2023-07-16T13:47:23;2.42;;;1.70;;
12248;SDS011;6187;50.778;6.142;2023-07-16T13:49:56;2.00;;;1.50;;
12248;SDS011;6187;50.778;6.142;2023-07-16T13:52:25;2.10;;;1.67;;
12248;SDS011;6187;50.778;6.142;2023-07-16T13:54:58;2.40;;;1.83;;
12248;SDS011;6187;50.778;6.142;2023-07-16T13:57:27;2.20;;;1.55;;
12248;SDS011;6187;50.778;6.142;2023-07-16T13:59:58;2.03;;;1.58;;
12248;SDS011;6187;50.778;6.142;2023-07-16T14:02:28;1.92;;;1.63;;
12248;SDS011;6187;50.778;6.142;2023-07-16T14:04:57;1.92;;;1.60;;
12248;SDS011;6187;50.778;6.142;2023-07-16T14:07:32;1.90;;;1.70;;
12248;SDS011;6187;50.778;6.142;2023-07-16T14:10:05;2.47;;;1.90;;
12248;SDS011;6187;50.778;6.142;2023-07-16T14:12:35;2.60;;;1.98;;
12248;SDS011;6187;50.778;6.142;2023-07-16T14:15:05;2.17;;;1.80;;
12248;SDS011;6187;50.778;6.142;2023-07-16T14:17:34;2.75;;;1.92;;
12248;SDS011;6187;50.778;6.142;2023-07-16T14:20:03;2.60;;;1.73;;
12248;SDS011;6187;50.778;6.142;2023-07-16T14:22:38;3.45;;;2.17;;
12248;SDS011;6187;50.778;6.142;2023-07-16T14:25:11;2.47;;;1.98;;
12248;SDS011;6187;50.778;6.142;2023-07-16T14:27:40;2.65;;;1.73;;
12248;SDS011;6187;50.778;6.142;2023-07-16T14:30:13;2.25;;;1.65;;
12248;SDS011;6187;50.778;6.142;2023-07-16T14:32:42;1.90;;;1.60;;
12248;SDS011;6187;50.778;6.142;2023-07-16T14:35:19;1.77;;;1.40;;
12248;SDS011;6187;50.778;6.142;2023-07-16T14:38:02;2.80;;;1.80;;
12248;SDS011;6187;50.778;6.142;2023-07-16T14:40:36;3.80;;;1.90;;
12248;SDS011;6187;50.778;6.142;2023-07-16T14:43:08;1.98;;;1.73;;
12248;SDS011;6187;50.778;6.142;2023-07-16T14:45:37;2.63;;;1.60;;
12248;SDS011;6187;50.778;6.142;2023-07-16T14:48:07;3.13;;;1.83;;
12248;SDS011;6187;50.778;6.142;2023-07-16T14:50:42;2.35;;;1.60;;
12248;SDS011;6187;50.778;6.142;2023-07-16T14:53:25;3.20;;;1.70;;
12248;SDS011;6187;50.778;6.142;2023-07-16T14:56:29;2.70;;;1.50;;
12248;SDS011;6187;50.778;6.142;2023-07-16T14:59:01;2.50;;;1.90;;
12248;SDS011;6187;50.778;6.142;2023-07-16T15:01:39;1.83;;;1.63;;
12248;SDS011;6187;50.778;6.142;2023-07-16T15:04:18;2.80;;;1.80;;
12248;SDS011;6187;50.778;6.142;2023-07-16T15:06:47;2.85;;;1.92;;
12248;SDS011;6187;50.778;6.142;2023-07-16T15:09:17;2.72;;;1.75;;
12248;SDS011;6187;50.778;6.142;2023-07-16T15:11:50;2.60;;;1.90;;
12248;SDS011;6187;50.778;6.142;2023-07-16T15:14:22;1.75;;;1.60;;
12248;SDS011;6187;50.778;6.142;2023-07-16T15:16:51;2.20;;;1.92;;
12248;SDS011;6187;50.778;6.142;2023-07-16T15:19:21;2.72;;;1.90;;
12248;SDS011;6187;50.778;6.142;2023-07-16T15:21:53;1.83;;;1.67;;